createdAt,value
2022-08-30T00:00:27.040Z,69.10
2022-08-30T00:02:55.588Z,69.20
2022-08-30T00:05:24.087Z,69.30
2022-08-30T00:07:54.702Z,69.40
2022-08-30T00:10:22.994Z,69.50
2022-08-30T00:12:51.270Z,69.40
2022-08-30T00:15:22.993Z,69.20
2022-08-30T00:17:51.330Z,69.10
2022-08-30T00:20:23.354Z,69.10
2022-08-30T00:22:53.005Z,69.10
2022-08-30T00:25:21.752Z,69.10
2022-08-30T00:27:50.323Z,69.30
2022-08-30T00:30:19.610Z,69.40
2022-08-30T00:32:51.074Z,69.40
2022-08-30T00:35:22.610Z,69.40
2022-08-30T00:37:51.213Z,69.30
2022-08-30T00:40:27.292Z,69.30
2022-08-30T00:42:59.663Z,69.30
2022-08-30T00:45:31.471Z,69.30
2022-08-30T00:48:00.445Z,69.20
2022-08-30T00:50:33.840Z,69.00
2022-08-30T00:53:06.963Z,68.90
2022-08-30T00:55:38.943Z,69.00
2022-08-30T00:58:13.958Z,69.10
2022-08-30T01:00:42.251Z,69.10
2022-08-30T01:03:12.957Z,69.00
2022-08-30T01:05:41.355Z,69.10
2022-08-30T01:08:11.878Z,69.30
2022-08-30T01:10:41.576Z,69.50
2022-08-30T01:13:10.797Z,69.60
2022-08-30T01:15:39.094Z,69.80
2022-08-30T01:18:14.419Z,70.10
2022-08-30T01:20:49.551Z,70.10
2022-08-30T01:23:21.258Z,70.10
2022-08-30T01:25:51.768Z,70.10
2022-08-30T01:28:23.174Z,70.10
2022-08-30T01:30:51.554Z,70.50
2022-08-30T01:33:23.518Z,70.70
2022-08-30T01:35:56.491Z,70.80
2022-08-30T01:38:32.177Z,70.90
2022-08-30T01:41:01.644Z,71.00
2022-08-30T01:43:29.937Z,70.90
2022-08-30T01:45:58.242Z,70.80
2022-08-30T01:48:30.891Z,70.80
2022-08-30T01:50:59.450Z,70.80
2022-08-30T01:53:29.182Z,70.70
2022-08-30T01:55:59.853Z,70.80
2022-08-30T01:58:29.965Z,70.70
2022-08-30T02:01:00.469Z,70.60
2022-08-30T02:03:34.917Z,70.50
2022-08-30T02:06:05.283Z,70.50
2022-08-30T02:08:35.385Z,70.40
2022-08-30T02:11:06.714Z,70.50
2022-08-30T02:13:35.416Z,70.50
2022-08-30T02:16:03.737Z,70.50
2022-08-30T02:18:34.688Z,70.50
2022-08-30T02:21:03.290Z,70.50
2022-08-30T02:23:31.980Z,70.50
2022-08-30T02:26:04.873Z,70.50
2022-08-30T02:28:33.112Z,70.50
2022-08-30T02:31:01.537Z,70.20
2022-08-30T02:33:29.867Z,70.00
2022-08-30T02:35:57.941Z,69.90
2022-08-30T02:38:28.481Z,69.90
2022-08-30T02:40:56.858Z,69.80
2022-08-30T02:43:26.976Z,70.40
2022-08-30T02:45:55.512Z,70.50
2022-08-30T02:48:26.013Z,70.70
2022-08-30T02:50:54.694Z,70.70
2022-08-30T02:53:23.652Z,70.70
2022-08-30T02:55:54.472Z,70.60
2022-08-30T02:58:22.836Z,70.50
2022-08-30T03:00:52.620Z,70.50
2022-08-30T03:03:20.987Z,70.50
2022-08-30T03:05:49.312Z,70.50
2022-08-30T03:08:20.191Z,70.40
2022-08-30T03:10:48.528Z,70.30
2022-08-30T03:13:16.999Z,70.00
2022-08-30T03:15:45.496Z,70.60
2022-08-30T03:18:15.233Z,69.90
2022-08-30T03:20:44.045Z,69.70
2022-08-30T03:23:22.388Z,69.70
2022-08-30T03:25:50.810Z,69.60
2022-08-30T03:28:19.443Z,69.60
2022-08-30T03:30:48.102Z,69.70
2022-08-30T03:33:18.765Z,69.60
2022-08-30T03:35:50.227Z,69.60
2022-08-30T03:38:20.902Z,69.60
2022-08-30T03:40:49.212Z,69.50
2022-08-30T03:43:17.751Z,69.50
2022-08-30T03:45:46.561Z,69.40
2022-08-30T03:48:14.905Z,69.40
2022-08-30T03:50:44.706Z,69.40
2022-08-30T03:53:13.036Z,69.40
2022-08-30T03:55:41.367Z,69.40
2022-08-30T03:58:09.697Z,69.40
2022-08-30T04:00:38.483Z,69.50
2022-08-30T04:03:07.200Z,69.60
2022-08-30T04:05:35.523Z,69.60
2022-08-30T04:08:07.834Z,69.60
2022-08-30T04:10:36.645Z,69.60
2022-08-30T04:13:05.735Z,69.40
2022-08-30T04:15:34.134Z,69.40
2022-08-30T04:18:02.409Z,73.50
2022-08-30T04:20:30.763Z,75.60
2022-08-30T04:23:02.233Z,76.40
2022-08-30T04:25:31.948Z,76.50
2022-08-30T04:28:00.234Z,76.50
2022-08-30T04:30:28.906Z,72.50
2022-08-30T04:32:58.840Z,70.50
2022-08-30T04:35:28.119Z,69.60
2022-08-30T04:37:56.522Z,69.10
2022-08-30T04:40:25.286Z,68.80
2022-08-30T04:42:56.337Z,68.80
2022-08-30T04:45:28.947Z,68.80
2022-08-30T04:47:57.344Z,68.80
2022-08-30T04:50:26.088Z,68.90
2022-08-30T04:52:54.469Z,68.90
2022-08-30T04:55:24.820Z,68.90
2022-08-30T04:57:55.042Z,68.90
2022-08-30T05:00:23.526Z,69.00
2022-08-30T05:02:51.838Z,69.10
2022-08-30T05:05:37.682Z,69.70
2022-08-30T05:08:06.290Z,69.10
2022-08-30T05:10:39.968Z,69.20
2022-08-30T05:13:09.537Z,69.20
2022-08-30T05:15:39.786Z,69.20
2022-08-30T05:18:08.943Z,68.70
2022-08-30T05:20:41.660Z,69.10
2022-08-30T05:23:10.278Z,69.30
2022-08-30T05:25:42.946Z,69.30
2022-08-30T05:28:15.055Z,69.40
2022-08-30T05:30:43.429Z,69.40
2022-08-30T05:33:13.829Z,69.40
2022-08-30T05:35:42.069Z,69.40
2022-08-30T05:38:13.401Z,69.40
2022-08-30T05:40:42.551Z,69.40
2022-08-30T05:43:11.334Z,69.40
2022-08-30T05:45:40.990Z,69.40
2022-08-30T05:48:09.436Z,69.40
2022-08-30T05:50:43.790Z,69.20
2022-08-30T05:53:12.106Z,68.80
2022-08-30T05:55:41.944Z,68.80
2022-08-30T05:58:10.101Z,68.60
2022-08-30T06:00:38.169Z,67.80
2022-08-30T06:03:07.813Z,67.40
2022-08-30T06:05:36.064Z,67.20
2022-08-30T06:08:04.575Z,66.90
2022-08-30T06:10:32.663Z,66.60
2022-08-30T06:13:00.765Z,66.50
2022-08-30T06:15:29.094Z,66.30
2022-08-30T06:17:57.240Z,65.90
2022-08-30T06:20:26.804Z,65.70
2022-08-30T06:22:54.949Z,66.00
2022-08-30T06:25:23.063Z,65.90
2022-08-30T06:27:55.912Z,65.80
2022-08-30T06:30:24.768Z,65.60
2022-08-30T06:32:53.507Z,65.40
2022-08-30T06:35:23.812Z,65.30
2022-08-30T06:37:55.483Z,65.00
2022-08-30T06:40:23.650Z,64.90
2022-08-30T06:42:51.738Z,64.60
2022-08-30T06:45:20.625Z,64.10
2022-08-30T06:47:49.576Z,62.40
2022-08-30T06:50:19.114Z,64.80
2022-08-30T06:52:47.773Z,62.50
2022-08-30T06:55:18.661Z,61.70
2022-08-30T06:57:47.948Z,63.80
2022-08-30T07:00:18.357Z,60.50
2022-08-30T07:02:46.744Z,58.10
2022-08-30T07:05:18.795Z,55.70
2022-08-30T07:07:47.537Z,52.10
2022-08-30T07:10:17.804Z,49.70
2022-08-30T07:12:46.387Z,50.00
2022-08-30T07:15:15.022Z,49.30
2022-08-30T07:18:00.587Z,49.50
2022-08-30T07:20:38.083Z,49.70
2022-08-30T07:23:08.853Z,50.50
2022-08-30T07:25:40.006Z,51.00
2022-08-30T07:28:09.337Z,50.90
2022-08-30T07:30:38.616Z,51.30
2022-08-30T07:33:06.908Z,50.30
2022-08-30T07:35:35.239Z,50.80
2022-08-30T07:38:03.491Z,49.60
2022-08-30T07:40:31.972Z,50.00
2022-08-30T07:43:02.472Z,49.80
2022-08-30T07:45:30.796Z,49.20
2022-08-30T07:47:59.246Z,48.90
2022-08-30T07:50:29.641Z,48.80
2022-08-30T07:52:57.931Z,48.70
2022-08-30T07:55:26.253Z,48.90
2022-08-30T07:57:54.767Z,47.60
2022-08-30T08:00:24.442Z,47.30
2022-08-30T08:02:55.380Z,47.30
2022-08-30T08:05:24.932Z,46.90
2022-08-30T08:07:53.416Z,47.10
2022-08-30T08:10:23.731Z,48.20
2022-08-30T08:12:52.230Z,45.90
2022-08-30T08:15:25.789Z,46.60
2022-08-30T08:17:54.066Z,47.30
2022-08-30T08:20:25.194Z,46.70
2022-08-30T08:22:56.096Z,46.90
2022-08-30T08:25:24.456Z,47.80
2022-08-30T08:27:53.172Z,49.80
2022-08-30T08:30:27.162Z,50.20
2022-08-30T08:32:55.595Z,48.50
2022-08-30T08:35:24.114Z,47.70
2022-08-30T08:37:52.391Z,47.10
2022-08-30T08:40:21.459Z,46.50
2022-08-30T08:42:57.770Z,46.00
2022-08-30T08:45:42.296Z,46.00
2022-08-30T08:48:11.922Z,47.40
2022-08-30T08:51:03.088Z,48.40
2022-08-30T08:53:46.058Z,48.80
2022-08-30T08:56:18.023Z,48.60
2022-08-30T08:58:47.102Z,49.00
2022-08-30T09:01:19.923Z,49.40
2022-08-30T09:03:49.117Z,49.70
2022-08-30T09:06:45.174Z,49.00
2022-08-30T09:09:14.684Z,48.80
2022-08-30T09:11:44.584Z,48.90
2022-08-30T09:14:17.188Z,48.60
2022-08-30T09:17:02.839Z,48.60
2022-08-30T09:19:38.480Z,48.30
2022-08-30T09:22:26.793Z,48.20
2022-08-30T09:25:04.668Z,48.60
2022-08-30T09:27:35.853Z,51.00
2022-08-30T09:30:14.201Z,49.50
2022-08-30T09:32:51.529Z,47.90
2022-08-30T09:35:22.357Z,47.40
2022-08-30T09:37:56.579Z,47.70
2022-08-30T09:40:30.338Z,47.50
2022-08-30T09:43:21.709Z,46.40
2022-08-30T09:46:05.815Z,46.60
2022-08-30T09:48:38.684Z,46.10
2022-08-30T09:51:42.524Z,45.70
2022-08-30T09:54:20.398Z,44.90
2022-08-30T09:57:12.654Z,45.80
2022-08-30T09:59:50.223Z,46.50
2022-08-30T10:02:56.224Z,46.20
2022-08-30T10:05:33.731Z,45.70
2022-08-30T10:08:17.855Z,44.90
2022-08-30T10:10:52.617Z,45.00
2022-08-30T10:13:43.737Z,42.70
2022-08-30T10:16:27.068Z,42.20
2022-08-30T10:19:06.413Z,41.70
2022-08-30T10:21:41.881Z,40.80
2022-08-30T10:24:14.125Z,40.40
2022-08-30T10:26:55.262Z,40.30
2022-08-30T10:29:29.621Z,39.60
2022-08-30T10:32:04.734Z,39.40
2022-08-30T10:34:37.302Z,38.70
2022-08-30T10:37:11.956Z,39.10
2022-08-30T10:39:44.505Z,39.40
2022-08-30T10:42:17.210Z,39.50
2022-08-30T10:44:50.899Z,39.60
2022-08-30T10:47:28.857Z,39.50
2022-08-30T10:50:05.842Z,39.90
2022-08-30T10:52:41.909Z,39.80
2022-08-30T10:55:16.886Z,39.20
2022-08-30T10:57:48.162Z,39.50
2022-08-30T11:00:24.434Z,40.30
2022-08-30T11:03:39.842Z,40.10
2022-08-30T11:06:17.458Z,39.70
2022-08-30T11:09:11.701Z,38.30
2022-08-30T11:12:06.460Z,38.30
2022-08-30T11:14:35.483Z,37.80
2022-08-30T11:17:06.524Z,38.30
2022-08-30T11:19:39.778Z,37.70
2022-08-30T11:22:15.685Z,37.60
2022-08-30T11:25:09.745Z,37.20
2022-08-30T11:27:47.358Z,37.30
2022-08-30T11:30:48.166Z,36.20
2022-08-30T11:33:46.100Z,37.30
2022-08-30T11:36:46.064Z,37.50
2022-08-30T11:39:52.373Z,37.20
2022-08-30T11:42:31.027Z,37.80
2022-08-30T11:45:39.335Z,38.30
2022-08-30T11:48:10.150Z,38.30
2022-08-30T11:50:48.832Z,38.00
2022-08-30T11:53:25.382Z,38.20
2022-08-30T11:56:08.816Z,38.20
2022-08-30T11:58:49.144Z,38.40
2022-08-30T12:01:50.383Z,40.40
2022-08-30T12:04:30.186Z,41.00
2022-08-30T12:07:00.440Z,42.30
2022-08-30T12:10:06.017Z,41.30
2022-08-30T12:13:01.634Z,40.50
2022-08-30T12:15:59.900Z,40.20
2022-08-30T12:18:45.562Z,39.50
2022-08-30T12:21:28.738Z,40.10
2022-08-30T12:24:04.530Z,40.30
2022-08-30T12:26:37.171Z,40.80
2022-08-30T12:29:15.385Z,41.50
2022-08-30T12:31:45.124Z,41.30
2022-08-30T12:34:20.691Z,41.70
2022-08-30T12:36:54.585Z,41.90
2022-08-30T12:39:23.936Z,42.10
2022-08-30T12:41:54.209Z,42.30
2022-08-30T12:44:25.398Z,42.30
2022-08-30T12:46:59.740Z,42.50
2022-08-30T12:49:33.190Z,42.20
2022-08-30T12:52:17.648Z,40.90
2022-08-30T12:54:47.661Z,40.30
2022-08-30T12:57:35.768Z,40.10
2022-08-30T13:00:05.416Z,39.80
2022-08-30T13:02:45.707Z,39.40
2022-08-30T13:05:50.499Z,40.10
2022-08-30T13:08:25.418Z,40.80
2022-08-30T13:11:05.803Z,41.40
2022-08-30T13:13:41.445Z,42.10
2022-08-30T13:16:29.365Z,42.50
2022-08-30T13:19:24.319Z,42.30
2022-08-30T13:21:55.235Z,41.50
2022-08-30T13:24:25.766Z,41.20
2022-08-30T13:26:55.316Z,40.90
2022-08-30T13:29:28.022Z,41.20
2022-08-30T13:31:58.520Z,38.70
2022-08-30T13:34:26.650Z,37.90
2022-08-30T13:36:58.158Z,37.90
2022-08-30T13:39:26.464Z,38.60
2022-08-30T13:41:55.659Z,39.10
2022-08-30T13:44:43.880Z,39.20
2022-08-30T13:47:32.500Z,39.10
2022-08-30T13:50:01.396Z,38.80
2022-08-30T13:52:32.853Z,38.80
2022-08-30T13:55:01.525Z,39.00
2022-08-30T14:00:25.824Z,38.90
2022-08-30T14:02:58.196Z,37.80
2022-08-30T14:05:54.628Z,37.70
2022-08-30T14:11:18.458Z,36.50
2022-08-30T14:16:38.090Z,34.90
2022-08-30T14:19:07.877Z,34.90
2022-08-30T14:21:36.001Z,34.40
2022-08-30T14:24:06.669Z,33.30
2022-08-30T14:26:39.727Z,34.00
2022-08-30T14:29:12.819Z,34.00
2022-08-30T14:31:41.986Z,34.00
2022-08-30T14:34:13.974Z,35.60
2022-08-30T14:36:44.484Z,36.30
2022-08-30T14:39:17.921Z,35.10
2022-08-30T14:41:51.513Z,33.50
2022-08-30T14:44:20.540Z,33.70
2022-08-30T14:46:50.970Z,34.10
2022-08-30T14:49:21.191Z,35.00
2022-08-30T14:51:52.678Z,36.00
2022-08-30T14:54:25.689Z,35.60
2022-08-30T14:56:55.053Z,37.10
2022-08-30T14:59:23.982Z,38.30
2022-08-30T15:01:55.328Z,38.50
2022-08-30T15:04:23.888Z,38.80
2022-08-30T15:06:53.640Z,38.70
2022-08-30T15:09:26.467Z,38.40
2022-08-30T15:11:59.572Z,39.20
2022-08-30T15:14:28.851Z,39.50
2022-08-30T15:16:59.444Z,38.30
2022-08-30T15:19:28.882Z,39.30
2022-08-30T15:22:02.290Z,38.80
2022-08-30T15:24:32.915Z,38.90
2022-08-30T15:27:01.893Z,38.90
2022-08-30T15:29:32.880Z,38.80
2022-08-30T15:32:04.219Z,38.60
2022-08-30T15:34:33.943Z,38.50
2022-08-30T15:37:02.555Z,39.10
2022-08-30T15:39:33.208Z,38.90
2022-08-30T15:42:01.994Z,38.50
2022-08-30T15:44:31.140Z,38.50
2022-08-30T15:46:59.960Z,38.40
2022-08-30T15:49:28.361Z,38.70
2022-08-30T15:52:02.200Z,39.30
2022-08-30T15:54:32.925Z,39.60
2022-08-30T15:57:01.613Z,39.60
2022-08-30T15:59:32.779Z,39.70
2022-08-30T16:02:01.289Z,40.20
2022-08-30T16:04:29.993Z,39.30
2022-08-30T16:07:00.433Z,39.30
2022-08-30T16:09:30.103Z,39.50
2022-08-30T16:12:02.811Z,39.40
2022-08-30T16:14:36.018Z,39.70
2022-08-30T16:17:04.927Z,39.90
2022-08-30T16:19:35.852Z,39.80
2022-08-30T16:22:08.685Z,39.80
2022-08-30T16:24:37.357Z,39.90
2022-08-30T16:27:08.800Z,40.10
2022-08-30T16:29:37.519Z,39.90
2022-08-30T16:32:07.768Z,40.20
2022-08-30T16:34:36.104Z,40.40
2022-08-30T16:37:05.390Z,40.70
2022-08-30T16:39:33.893Z,40.80
2022-08-30T16:42:03.354Z,40.90
2022-08-30T16:44:36.215Z,41.50
2022-08-30T16:47:04.788Z,42.00
2022-08-30T16:49:35.594Z,42.60
2022-08-30T16:52:04.427Z,43.20
2022-08-30T16:54:35.421Z,43.00
2022-08-30T16:57:03.923Z,43.30
2022-08-30T16:59:35.484Z,43.30
2022-08-30T17:02:03.857Z,43.60
2022-08-30T17:04:33.388Z,43.40
2022-08-30T17:07:01.764Z,43.60
2022-08-30T17:09:30.769Z,44.20
2022-08-30T17:11:59.380Z,43.90
2022-08-30T17:14:29.199Z,44.20
2022-08-30T17:17:00.843Z,44.30
2022-08-30T17:19:29.925Z,44.70
2022-08-30T17:22:01.561Z,44.60
2022-08-30T17:24:30.562Z,45.00
2022-08-30T17:26:58.873Z,44.60
2022-08-30T17:29:28.313Z,45.50
2022-08-30T17:31:56.935Z,45.00
2022-08-30T17:34:29.286Z,44.80
2022-08-30T17:36:59.991Z,44.50
2022-08-30T17:39:29.546Z,45.00
2022-08-30T17:41:58.439Z,45.70
2022-08-30T17:44:29.074Z,45.90
2022-08-30T17:46:59.627Z,45.60
2022-08-30T17:49:33.525Z,45.50
2022-08-30T17:52:02.374Z,45.70
2022-08-30T17:54:32.792Z,45.80
2022-08-30T17:57:02.065Z,45.30
2022-08-30T17:59:31.721Z,45.60
2022-08-30T18:02:01.327Z,45.70
2022-08-30T18:04:32.287Z,46.00
2022-08-30T18:07:00.659Z,45.90
2022-08-30T18:09:34.076Z,49.00
2022-08-30T18:12:03.939Z,50.10
2022-08-30T18:14:32.257Z,51.20
2022-08-30T18:17:00.679Z,51.40
2022-08-30T18:19:32.155Z,49.10
2022-08-30T18:22:03.127Z,47.20
2022-08-30T18:24:32.089Z,50.70
2022-08-30T18:27:03.471Z,50.50
2022-08-30T18:29:32.431Z,52.10
2022-08-30T18:32:01.829Z,51.20
2022-08-30T18:34:33.117Z,48.80
2022-08-30T18:37:01.430Z,47.70
2022-08-30T18:39:34.216Z,47.30
2022-08-30T18:42:06.162Z,47.40
2022-08-30T18:44:35.198Z,47.50
2022-08-30T18:47:05.883Z,47.80
2022-08-30T18:49:37.853Z,48.50
2022-08-30T18:52:07.620Z,48.20
2022-08-30T18:54:40.360Z,48.40
2022-08-30T18:57:09.906Z,48.70
2022-08-30T18:59:38.878Z,49.00
2022-08-30T19:02:07.561Z,48.90
2022-08-30T19:04:39.467Z,49.40
2022-08-30T19:07:13.158Z,49.70
2022-08-30T19:09:43.669Z,50.00
2022-08-30T19:12:14.121Z,49.80
2022-08-30T19:14:43.163Z,50.00
2022-08-30T19:17:11.532Z,50.20
2022-08-30T19:19:48.260Z,50.10
2022-08-30T19:22:20.850Z,50.40
2022-08-30T19:24:49.915Z,50.30
2022-08-30T19:27:21.614Z,50.40
2022-08-30T19:30:08.647Z,50.40
2022-08-30T19:32:37.773Z,50.60
2022-08-30T19:35:08.624Z,50.90
2022-08-30T19:37:37.938Z,50.70
2022-08-30T19:40:10.294Z,50.80
2022-08-30T19:42:46.464Z,51.00
2022-08-30T19:45:18.352Z,50.80
2022-08-30T19:47:47.904Z,51.00
2022-08-30T19:50:20.472Z,51.20
2022-08-30T19:52:54.125Z,51.40
2022-08-30T19:55:28.396Z,51.20
2022-08-30T19:57:58.238Z,51.40
2022-08-30T20:00:26.689Z,51.50
2022-08-30T20:02:54.968Z,51.60
2022-08-30T20:05:25.022Z,51.90
2022-08-30T20:07:55.640Z,51.90
2022-08-30T20:10:26.865Z,51.90
2022-08-30T20:12:55.545Z,52.00
2022-08-30T20:15:25.736Z,52.60
2022-08-30T20:18:05.270Z,52.10
2022-08-30T20:20:36.984Z,52.20
2022-08-30T20:23:06.003Z,52.30
2022-08-30T20:25:34.578Z,52.50
2022-08-30T20:28:03.815Z,52.60
2022-08-30T20:30:32.425Z,52.90
2022-08-30T20:33:06.388Z,53.10
2022-08-30T20:35:38.637Z,53.20
2022-08-30T20:38:07.241Z,53.30
2022-08-30T20:40:37.178Z,53.20
2022-08-30T20:43:05.819Z,53.30
2022-08-30T20:45:35.185Z,53.20
2022-08-30T20:48:05.261Z,53.30
2022-08-30T20:50:33.665Z,53.50
2022-08-30T20:53:03.427Z,53.70
2022-08-30T20:55:31.904Z,53.60
2022-08-30T20:58:00.242Z,53.90
2022-08-30T21:00:28.651Z,53.90
2022-08-30T21:02:58.896Z,54.00
2022-08-30T21:05:30.432Z,53.90
2022-08-30T21:07:58.784Z,56.80
2022-08-30T21:10:29.413Z,55.80
2022-08-30T21:12:58.973Z,56.10
2022-08-30T21:15:37.373Z,55.70
2022-08-30T21:18:06.928Z,55.60
2022-08-30T21:20:36.053Z,55.00
2022-08-30T21:23:04.432Z,54.80
2022-08-30T21:25:34.310Z,54.80
2022-08-30T21:28:02.917Z,54.70
2022-08-30T21:30:31.326Z,55.20
2022-08-30T21:33:03.341Z,55.60
2022-08-30T21:35:49.550Z,55.50
2022-08-30T21:38:18.158Z,55.50
2022-08-30T21:40:50.461Z,55.60
2022-08-30T21:43:21.090Z,55.60
2022-08-30T21:45:51.328Z,55.40
2022-08-30T21:48:19.783Z,55.30
2022-08-30T21:50:48.148Z,55.40
2022-08-30T21:53:17.241Z,55.50
2022-08-30T21:55:45.905Z,55.50
2022-08-30T21:58:17.966Z,55.50
2022-08-30T22:00:46.259Z,55.80
2022-08-30T22:03:14.604Z,55.80
2022-08-30T22:05:52.732Z,56.00
2022-08-30T22:08:21.100Z,55.90
2022-08-30T22:10:49.406Z,55.80
2022-08-30T22:13:19.360Z,56.30
2022-08-30T22:15:50.023Z,56.60
2022-08-30T22:18:20.676Z,57.00
2022-08-30T22:20:49.012Z,57.20
2022-08-30T22:23:18.898Z,57.20
2022-08-30T22:25:47.525Z,57.00
2022-08-30T22:28:16.121Z,56.60
2022-08-30T22:30:46.755Z,56.20
2022-08-30T22:33:15.333Z,56.00
2022-08-30T22:35:44.452Z,56.00
2022-08-30T22:38:15.759Z,56.00
2022-08-30T22:40:48.476Z,56.00
2022-08-30T22:43:17.559Z,56.10
2022-08-30T22:45:47.676Z,56.20
2022-08-30T22:48:15.950Z,56.20
2022-08-30T22:50:46.382Z,56.00
2022-08-30T22:53:17.186Z,56.00
2022-08-30T22:55:45.585Z,56.00
2022-08-30T22:58:13.981Z,56.10
2022-08-30T23:00:44.807Z,56.30
2022-08-30T23:03:27.006Z,56.70
2022-08-30T23:05:55.394Z,56.90
2022-08-30T23:08:24.075Z,57.40
2022-08-30T23:10:52.432Z,57.90
2022-08-30T23:13:22.963Z,58.50
2022-08-30T23:15:51.334Z,58.90
2022-08-30T23:18:21.748Z,59.30
2022-08-30T23:20:53.849Z,59.50
2022-08-30T23:23:39.496Z,59.90
2022-08-30T23:26:24.942Z,60.20
2022-08-30T23:29:10.530Z,60.30
2022-08-30T23:31:56.053Z,60.40
2022-08-30T23:34:41.966Z,60.70
2022-08-30T23:37:31.457Z,60.90
2022-08-30T23:40:16.851Z,61.00
2022-08-30T23:43:02.780Z,61.20
2022-08-30T23:45:50.737Z,60.90
2022-08-30T23:48:36.039Z,61.00
2022-08-30T23:51:23.016Z,61.00
2022-08-30T23:54:10.348Z,61.10
2022-08-30T23:56:56.636Z,61.00
2022-08-30T23:59:42.553Z,60.90
